createdAt,value
2024-02-06T00:01:14.198Z,4.22
2024-02-06T00:03:42.369Z,4.63
2024-02-06T00:06:10.681Z,5.05
2024-02-06T00:08:39.459Z,5.65
2024-02-06T00:11:08.969Z,3.67
2024-02-06T00:13:38.072Z,5.47
2024-02-06T00:16:13.824Z,5.45
2024-02-06T00:18:42.691Z,4.13
2024-02-06T00:21:10.809Z,4.70
2024-02-06T00:23:38.940Z,5.78
2024-02-06T00:26:07.153Z,5.18
2024-02-06T00:28:35.952Z,5.38
2024-02-06T00:31:04.194Z,4.70
2024-02-06T00:33:33.916Z,4.68
2024-02-06T00:36:02.848Z,5.38
2024-02-06T00:38:31.102Z,6.38
2024-02-06T00:40:59.290Z,5.15
2024-02-06T00:43:27.535Z,5.40
2024-02-06T00:45:55.885Z,5.38
2024-02-06T00:48:24.081Z,5.10
2024-02-06T00:50:53.662Z,5.82
2024-02-06T00:53:21.786Z,5.43
2024-02-06T00:55:49.995Z,5.03
2024-02-06T00:58:18.186Z,4.93
2024-02-06T01:00:46.733Z,6.25
2024-02-06T01:03:15.019Z,6.03
2024-02-06T01:05:43.447Z,5.93
2024-02-06T01:08:12.943Z,5.65
2024-02-06T01:10:41.170Z,6.40
2024-02-06T01:13:09.445Z,5.70
2024-02-06T01:15:37.573Z,5.35
2024-02-06T01:18:06.304Z,5.93
2024-02-06T01:20:34.417Z,6.22
2024-02-06T01:23:02.506Z,5.50
2024-02-06T01:25:32.073Z,4.72
2024-02-06T01:28:00.421Z,5.40
2024-02-06T01:30:29.152Z,6.15
2024-02-06T01:32:57.440Z,5.05
2024-02-06T01:35:26.076Z,5.13
2024-02-06T01:37:54.211Z,4.43
2024-02-06T01:40:22.767Z,5.22
2024-02-06T01:42:52.356Z,4.95
2024-02-06T01:45:20.823Z,5.20
2024-02-06T01:47:49.712Z,5.43
2024-02-06T01:50:18.394Z,5.15
2024-02-06T01:52:46.700Z,4.93
2024-02-06T01:55:15.146Z,5.40
2024-02-06T01:57:43.326Z,4.90
2024-02-06T02:00:15.177Z,5.45
2024-02-06T02:02:43.574Z,4.70
2024-02-06T02:05:12.079Z,4.25
2024-02-06T02:07:40.812Z,4.50
2024-02-06T02:10:09.749Z,4.72
2024-02-06T02:12:39.271Z,4.07
2024-02-06T02:15:09.354Z,4.25
2024-02-06T02:17:39.034Z,4.22
2024-02-06T02:20:08.395Z,4.40
2024-02-06T02:22:38.108Z,3.50
2024-02-06T02:25:06.922Z,4.32
2024-02-06T02:27:35.950Z,4.10
2024-02-06T02:30:04.983Z,3.95
2024-02-06T02:32:34.244Z,3.00
2024-02-06T02:35:02.498Z,3.53
2024-02-06T02:37:30.787Z,3.55
2024-02-06T02:40:00.476Z,3.72
2024-02-06T02:42:28.837Z,3.17
2024-02-06T02:44:57.463Z,3.03
2024-02-06T02:47:25.814Z,2.80
2024-02-06T02:49:54.134Z,3.88
2024-02-06T02:52:22.386Z,3.17
2024-02-06T02:54:50.665Z,2.63
2024-02-06T02:57:20.352Z,2.85
2024-02-06T02:59:48.531Z,2.60
2024-02-06T03:02:16.822Z,2.80
2024-02-06T03:04:45.115Z,2.47
2024-02-06T03:07:13.501Z,2.40
2024-02-06T03:09:43.703Z,2.30
2024-02-06T03:12:11.812Z,2.15
2024-02-06T03:14:41.433Z,2.15
2024-02-06T03:17:09.620Z,2.25
2024-02-06T03:19:37.887Z,1.95
2024-02-06T03:22:06.385Z,2.47
2024-02-06T03:24:34.586Z,2.15
2024-02-06T03:27:02.743Z,2.20
2024-02-06T03:29:30.918Z,1.85
2024-02-06T03:32:00.476Z,1.90
2024-02-06T03:34:28.821Z,1.55
2024-02-06T03:36:57.319Z,1.63
2024-02-06T03:39:25.672Z,2.25
2024-02-06T03:41:53.878Z,1.63
2024-02-06T03:44:23.967Z,1.48
2024-02-06T03:46:52.140Z,1.67
2024-02-06T03:49:21.783Z,2.00
2024-02-06T03:51:50.067Z,1.45
2024-02-06T03:54:18.193Z,1.63
2024-02-06T03:56:46.443Z,1.38
2024-02-06T03:59:15.242Z,1.48
2024-02-06T04:01:45.528Z,1.48
2024-02-06T04:04:16.619Z,1.55
2024-02-06T04:06:46.946Z,1.42
2024-02-06T04:09:15.607Z,1.40
2024-02-06T04:11:43.787Z,1.02
2024-02-06T04:14:11.960Z,1.30
2024-02-06T04:16:40.171Z,1.17
2024-02-06T04:19:08.390Z,1.08
2024-02-06T04:21:37.227Z,1.50
2024-02-06T04:24:08.858Z,1.52
2024-02-06T04:26:37.530Z,1.77
2024-02-06T04:29:05.795Z,1.27
2024-02-06T04:31:34.317Z,1.42
2024-02-06T04:34:02.791Z,1.40
2024-02-06T04:36:31.082Z,1.60
2024-02-06T04:38:59.359Z,1.20
2024-02-06T04:41:28.937Z,1.10
2024-02-06T04:43:57.064Z,1.33
2024-02-06T04:46:25.367Z,1.35
2024-02-06T04:48:53.585Z,1.20
2024-02-06T04:51:21.763Z,1.58
2024-02-06T04:53:49.989Z,1.38
2024-02-06T04:56:23.551Z,1.60
2024-02-06T04:58:53.258Z,9.02
2024-02-06T05:01:21.872Z,3.08
2024-02-06T05:03:50.375Z,1.60
2024-02-06T05:06:18.579Z,1.30
2024-02-06T05:08:46.727Z,2.53
2024-02-06T05:11:14.916Z,2.08
2024-02-06T05:13:44.017Z,1.60
2024-02-06T05:16:13.733Z,1.60
2024-02-06T05:18:42.685Z,2.70
2024-02-06T05:21:11.000Z,1.50
2024-02-06T05:23:39.117Z,1.33
2024-02-06T05:26:07.963Z,1.40
2024-02-06T05:28:36.327Z,2.10
2024-02-06T05:31:04.570Z,1.60
2024-02-06T05:33:34.126Z,1.27
2024-02-06T05:36:02.268Z,2.65
2024-02-06T05:38:30.509Z,1.50
2024-02-06T05:40:58.654Z,1.58
2024-02-06T05:43:26.798Z,1.13
2024-02-06T05:45:54.980Z,1.45
2024-02-06T05:48:23.155Z,1.67
2024-02-06T05:50:52.629Z,1.92
2024-02-06T05:53:20.766Z,1.65
2024-02-06T05:55:49.085Z,1.80
2024-02-06T05:58:17.298Z,1.38
2024-02-06T06:00:45.478Z,1.52
2024-02-06T06:03:13.687Z,1.75
2024-02-06T06:05:42.100Z,1.40
2024-02-06T06:08:11.774Z,1.63
2024-02-06T06:10:40.058Z,1.40
2024-02-06T06:13:08.276Z,1.42
2024-02-06T06:15:36.412Z,1.85
2024-02-06T06:18:05.384Z,1.48
2024-02-06T06:20:33.525Z,2.35
2024-02-06T06:23:01.976Z,1.55
2024-02-06T06:25:31.963Z,1.38
2024-02-06T06:28:00.171Z,2.20
2024-02-06T06:30:28.406Z,5.30
2024-02-06T06:32:56.636Z,2.28
2024-02-06T06:35:24.930Z,2.22
2024-02-06T06:37:53.137Z,1.50
2024-02-06T06:40:21.586Z,1.55
2024-02-06T06:42:51.852Z,1.50
2024-02-06T06:45:20.094Z,2.53
2024-02-06T06:47:48.284Z,2.10
2024-02-06T06:50:16.824Z,1.52
2024-02-06T06:52:45.167Z,1.80
2024-02-06T06:55:14.079Z,1.25
2024-02-06T06:57:44.501Z,1.40
2024-02-06T07:00:16.904Z,1.40
2024-02-06T07:02:45.386Z,1.60
2024-02-06T07:05:13.676Z,1.50
2024-02-06T07:07:42.140Z,1.75
2024-02-06T07:10:11.764Z,1.40
2024-02-06T07:12:40.138Z,1.50
2024-02-06T07:15:08.764Z,1.95
2024-02-06T07:17:42.823Z,1.52
2024-02-06T07:20:12.406Z,1.48
2024-02-06T07:22:40.734Z,1.23
2024-02-06T07:25:10.709Z,1.40
2024-02-06T07:27:39.432Z,2.00
2024-02-06T07:30:08.664Z,1.20
2024-02-06T07:32:41.829Z,1.30
2024-02-06T07:35:10.830Z,2.05
2024-02-06T07:37:39.557Z,1.40
2024-02-06T07:40:09.458Z,1.20
2024-02-06T07:42:37.879Z,1.45
2024-02-06T07:45:06.879Z,1.90
2024-02-06T07:47:35.233Z,1.25
2024-02-06T07:50:06.437Z,1.30
2024-02-06T07:52:34.682Z,1.30
2024-02-06T07:55:03.316Z,3.22
2024-02-06T07:57:31.457Z,2.97
2024-02-06T07:59:59.621Z,1.67
2024-02-06T08:02:27.824Z,1.70
2024-02-06T08:04:57.296Z,1.15
2024-02-06T08:07:28.981Z,1.67
2024-02-06T08:09:57.313Z,1.40
2024-02-06T08:12:25.939Z,1.70
2024-02-06T08:14:54.086Z,1.40
2024-02-06T08:17:22.623Z,1.58
2024-02-06T08:19:51.035Z,1.58
2024-02-06T08:22:20.191Z,1.30
2024-02-06T08:24:50.119Z,1.58
2024-02-06T08:27:18.324Z,1.40
2024-02-06T08:29:46.440Z,1.38
2024-02-06T08:32:14.590Z,1.25
2024-02-06T08:34:43.379Z,1.45
2024-02-06T08:37:11.873Z,1.27
2024-02-06T08:39:40.047Z,1.40
2024-02-06T08:42:09.629Z,1.48
2024-02-06T08:44:37.781Z,1.30
2024-02-06T08:47:06.200Z,1.90
2024-02-06T08:49:34.662Z,1.30
2024-02-06T08:52:02.903Z,1.77
2024-02-06T08:54:31.172Z,1.63
2024-02-06T08:56:59.312Z,1.27
2024-02-06T08:59:28.804Z,1.65
2024-02-06T09:01:57.152Z,1.67
2024-02-06T09:04:25.585Z,1.67
2024-02-06T09:06:53.831Z,1.40
2024-02-06T09:09:25.500Z,1.95
2024-02-06T09:14:23.069Z,1.55
2024-02-06T09:16:54.003Z,2.55
2024-02-06T09:19:22.328Z,1.63
2024-02-06T09:21:50.740Z,1.60
2024-02-06T09:24:19.207Z,1.35
2024-02-06T09:26:47.361Z,1.50
2024-02-06T09:29:16.177Z,1.73
2024-02-06T09:31:44.341Z,1.42
2024-02-06T09:34:13.992Z,1.83
2024-02-06T09:36:43.342Z,1.60
2024-02-06T09:39:12.149Z,1.70
2024-02-06T09:41:42.451Z,1.90
2024-02-06T09:44:13.646Z,1.48
2024-02-06T09:46:42.897Z,2.05
2024-02-06T09:49:11.263Z,1.33
2024-02-06T09:51:43.685Z,1.70
2024-02-06T09:54:17.080Z,2.45
2024-02-06T09:56:48.710Z,1.75
2024-02-06T09:59:20.021Z,2.10
2024-02-06T10:01:48.901Z,1.27
2024-02-06T10:04:21.460Z,2.38
2024-02-06T10:06:51.058Z,2.30
2024-02-06T10:09:20.836Z,1.70
2024-02-06T10:11:48.968Z,1.63
2024-02-06T10:14:17.199Z,2.05
2024-02-06T10:16:45.377Z,1.98
2024-02-06T10:19:14.441Z,2.00
2024-02-06T10:21:42.728Z,1.80
2024-02-06T10:24:12.579Z,2.05
2024-02-06T10:26:40.944Z,2.20
2024-02-06T10:29:12.276Z,2.00
2024-02-06T10:31:40.885Z,2.97
2024-02-06T10:34:10.410Z,2.20
2024-02-06T10:36:38.715Z,2.00
2024-02-06T10:39:07.325Z,2.30
2024-02-06T10:41:57.671Z,2.38
2024-02-06T10:44:25.421Z,1.98
2024-02-06T10:47:02.858Z,2.15
2024-02-06T10:49:32.844Z,1.92
2024-02-06T10:52:05.297Z,1.85
2024-02-06T10:54:34.792Z,3.75
2024-02-06T10:57:07.682Z,3.90
2024-02-06T10:59:46.550Z,2.58
2024-02-06T11:02:24.600Z,2.80
2024-02-06T11:05:01.464Z,2.22
2024-02-06T11:07:35.731Z,2.60
2024-02-06T11:10:05.752Z,2.58
2024-02-06T11:12:37.933Z,2.47
2024-02-06T11:15:10.433Z,2.50
2024-02-06T11:17:40.231Z,2.38
2024-02-06T11:20:15.182Z,2.67
2024-02-06T11:22:46.139Z,2.50
2024-02-06T11:25:16.784Z,2.42
2024-02-06T11:27:47.667Z,2.78
2024-02-06T11:30:18.173Z,2.83
2024-02-06T11:32:53.018Z,2.53
2024-02-06T11:35:28.850Z,3.05
2024-02-06T11:37:58.096Z,3.72
2024-02-06T11:40:27.407Z,3.05
2024-02-06T11:43:03.950Z,3.63
2024-02-06T11:45:32.748Z,3.50
2024-02-06T11:48:02.960Z,3.22
2024-02-06T11:50:36.568Z,3.53
2024-02-06T11:53:06.884Z,3.10
2024-02-06T11:55:37.153Z,4.22
2024-02-06T11:58:07.658Z,4.28
2024-02-06T12:00:35.940Z,3.85
2024-02-06T12:03:05.820Z,4.28
2024-02-06T12:05:41.174Z,3.72
2024-02-06T12:08:12.150Z,3.30
2024-02-06T12:10:41.221Z,3.63
2024-02-06T12:13:12.790Z,3.58
2024-02-06T12:15:42.364Z,3.85
2024-02-06T12:18:13.257Z,3.65
2024-02-06T12:20:42.852Z,3.15
2024-02-06T12:23:13.364Z,3.92
2024-02-06T12:25:43.599Z,3.22
2024-02-06T12:28:17.737Z,3.55
2024-02-06T12:30:47.353Z,3.67
2024-02-06T12:33:16.260Z,4.47
2024-02-06T12:35:44.637Z,4.47
2024-02-06T12:38:14.173Z,3.25
2024-02-06T12:40:44.566Z,3.50
2024-02-06T12:43:15.482Z,3.65
2024-02-06T12:45:45.365Z,3.40
2024-02-06T12:48:13.894Z,4.30
2024-02-06T12:50:44.016Z,4.10
2024-02-06T12:53:12.706Z,3.03
2024-02-06T12:55:42.107Z,3.50
2024-02-06T12:58:10.672Z,3.53
2024-02-06T13:00:40.517Z,3.13
2024-02-06T13:03:08.992Z,3.72
2024-02-06T13:05:38.035Z,3.58
2024-02-06T13:08:09.769Z,3.60
2024-02-06T13:10:39.251Z,3.42
2024-02-06T13:13:09.323Z,3.17
2024-02-06T13:15:39.684Z,3.22
2024-02-06T13:18:09.469Z,3.95
2024-02-06T13:20:40.783Z,3.88
2024-02-06T13:23:12.490Z,3.00
2024-02-06T13:25:41.701Z,3.70
2024-02-06T13:28:10.400Z,3.35
2024-02-06T13:30:40.026Z,3.33
2024-02-06T13:33:09.575Z,4.07
2024-02-06T13:35:38.846Z,3.60
2024-02-06T13:38:07.093Z,3.28
2024-02-06T13:40:36.197Z,3.28
2024-02-06T13:43:04.549Z,3.38
2024-02-06T13:45:32.730Z,3.50
2024-02-06T13:48:02.403Z,3.53
2024-02-06T13:50:30.760Z,3.42
2024-02-06T13:53:02.569Z,2.97
2024-02-06T13:55:33.191Z,2.97
2024-02-06T13:58:01.664Z,2.60
2024-02-06T14:00:29.914Z,3.60
2024-02-06T14:02:58.116Z,3.30
2024-02-06T14:05:29.497Z,2.80
2024-02-06T14:07:58.697Z,3.15
2024-02-06T14:10:27.549Z,3.28
2024-02-06T14:12:55.775Z,2.65
2024-02-06T14:15:24.164Z,3.10
2024-02-06T14:17:52.458Z,2.90
2024-02-06T14:20:21.133Z,3.00
2024-02-06T14:22:50.772Z,3.17
2024-02-06T14:25:19.760Z,2.75
2024-02-06T14:27:48.224Z,2.92
2024-02-06T14:30:16.655Z,3.15
2024-02-06T14:32:44.962Z,2.95
2024-02-06T14:35:13.184Z,2.72
2024-02-06T14:37:41.656Z,3.10
2024-02-06T14:40:12.006Z,2.53
2024-02-06T14:42:40.793Z,3.10
2024-02-06T14:45:09.436Z,2.83
2024-02-06T14:47:37.686Z,2.95
2024-02-06T14:50:06.652Z,3.55
2024-02-06T14:52:35.069Z,2.80
2024-02-06T14:55:03.308Z,2.83
2024-02-06T14:57:33.058Z,2.95
2024-02-06T15:00:04.166Z,3.45
2024-02-06T15:02:32.282Z,3.08
2024-02-06T15:05:00.624Z,3.33
2024-02-06T15:07:29.178Z,2.83
2024-02-06T15:09:57.826Z,2.45
2024-02-06T15:12:26.124Z,2.45
2024-02-06T15:14:55.821Z,3.17
2024-02-06T15:17:24.244Z,4.00
2024-02-06T15:19:52.479Z,2.78
2024-02-06T15:22:20.782Z,3.15
2024-02-06T15:24:49.018Z,4.95
2024-02-06T15:27:17.220Z,3.25
2024-02-06T15:29:45.327Z,3.15
2024-02-06T15:32:14.801Z,3.63
2024-02-06T15:34:43.530Z,3.13
2024-02-06T15:37:11.863Z,3.63
2024-02-06T15:39:49.740Z,4.32
2024-02-06T15:42:18.308Z,2.80
2024-02-06T15:44:46.683Z,2.63
2024-02-06T15:47:16.285Z,3.45
2024-02-06T15:49:45.937Z,3.00
2024-02-06T15:52:14.154Z,2.80
2024-02-06T15:54:45.032Z,2.53
2024-02-06T15:57:14.068Z,2.80
2024-02-06T15:59:44.336Z,2.42
2024-02-06T16:02:15.321Z,2.78
2024-02-06T16:04:45.528Z,2.25
2024-02-06T16:07:13.817Z,2.60
2024-02-06T16:09:42.027Z,3.65
2024-02-06T16:12:10.748Z,2.53
2024-02-06T16:14:38.867Z,3.03
2024-02-06T16:17:06.980Z,2.90
2024-02-06T16:19:40.469Z,3.55
2024-02-06T16:22:10.584Z,2.63
2024-02-06T16:24:38.809Z,2.88
2024-02-06T16:27:07.196Z,2.67
2024-02-06T16:29:35.569Z,3.28
2024-02-06T16:32:04.424Z,3.10
2024-02-06T16:34:39.002Z,3.45
2024-02-06T16:37:10.792Z,3.10
2024-02-06T16:39:38.941Z,2.63
2024-02-06T16:42:07.636Z,4.57
2024-02-06T16:44:35.892Z,3.15
2024-02-06T16:47:04.240Z,2.33
2024-02-06T16:49:32.471Z,2.47
2024-02-06T16:52:00.790Z,2.35
2024-02-06T16:54:30.361Z,2.55
2024-02-06T16:56:59.798Z,2.83
2024-02-06T16:59:28.097Z,2.70
2024-02-06T17:01:56.384Z,2.30
2024-02-06T17:04:24.631Z,2.45
2024-02-06T17:06:52.879Z,2.42
2024-02-06T17:09:21.134Z,1.88
2024-02-06T17:11:50.806Z,2.20
2024-02-06T17:14:18.966Z,2.28
2024-02-06T17:16:48.440Z,2.45
2024-02-06T17:19:17.532Z,1.85
2024-02-06T17:21:46.420Z,2.25
2024-02-06T17:24:14.685Z,2.08
2024-02-06T17:26:42.949Z,1.77
2024-02-06T17:29:12.652Z,2.13
2024-02-06T17:31:41.038Z,2.10
2024-02-06T17:34:09.793Z,2.58
2024-02-06T17:36:41.375Z,2.05
2024-02-06T17:39:09.762Z,2.53
2024-02-06T17:41:38.064Z,2.00
2024-02-06T17:44:06.434Z,1.88
2024-02-06T17:46:35.996Z,2.33
2024-02-06T17:49:04.276Z,2.47
2024-02-06T17:51:32.978Z,2.72
2024-02-06T17:54:01.165Z,1.90
2024-02-06T17:56:29.649Z,2.70
2024-02-06T17:58:58.459Z,2.00
2024-02-06T18:01:26.750Z,1.77
2024-02-06T18:03:57.930Z,2.08
2024-02-06T18:06:26.281Z,2.33
2024-02-06T18:08:54.473Z,2.50
2024-02-06T18:11:22.669Z,2.25
2024-02-06T18:13:50.928Z,1.83
2024-02-06T18:16:19.113Z,1.58
2024-02-06T18:18:47.284Z,1.70
2024-02-06T18:21:16.837Z,1.88
2024-02-06T18:23:44.949Z,1.50
2024-02-06T18:26:13.095Z,1.90
2024-02-06T18:28:41.264Z,2.00
2024-02-06T18:31:13.051Z,2.10
2024-02-06T18:33:41.324Z,1.98
2024-02-06T18:36:10.768Z,1.90
2024-02-06T18:38:40.288Z,1.90
2024-02-06T18:41:09.258Z,2.38
2024-02-06T18:43:37.483Z,2.20
2024-02-06T18:46:05.971Z,2.63
2024-02-06T18:48:34.185Z,3.15
2024-02-06T18:51:02.415Z,2.50
2024-02-06T18:53:30.593Z,3.00
2024-02-06T18:56:01.771Z,2.13
2024-02-06T18:58:30.043Z,3.53
2024-02-06T19:01:01.115Z,2.33
2024-02-06T19:03:31.534Z,2.75
2024-02-06T19:06:00.985Z,2.28
2024-02-06T19:08:29.425Z,2.58
2024-02-06T19:10:59.046Z,2.92
2024-02-06T19:13:27.424Z,2.97
2024-02-06T19:15:56.109Z,2.40
2024-02-06T19:18:24.393Z,1.90
2024-02-06T19:20:52.628Z,2.25
2024-02-06T19:23:20.921Z,2.03
2024-02-06T19:25:50.890Z,2.30
2024-02-06T19:28:20.908Z,2.10
2024-02-06T19:30:49.306Z,2.47
2024-02-06T19:33:18.020Z,2.55
2024-02-06T19:35:46.642Z,1.70
2024-02-06T19:38:20.769Z,2.58
2024-02-06T19:40:49.272Z,2.20
2024-02-06T19:43:18.441Z,1.67
2024-02-06T19:45:48.354Z,2.38
2024-02-06T19:48:22.897Z,2.03
2024-02-06T19:50:53.344Z,2.10
2024-02-06T19:53:21.855Z,1.85
2024-02-06T19:55:50.505Z,3.08
2024-02-06T19:58:18.969Z,2.28
2024-02-06T20:00:48.606Z,2.17
2024-02-06T20:03:16.916Z,2.80
2024-02-06T20:05:45.435Z,2.75
2024-02-06T20:08:13.853Z,2.33
2024-02-06T20:10:42.070Z,2.45
2024-02-06T20:13:10.679Z,2.17
2024-02-06T20:15:39.616Z,2.40
2024-02-06T20:18:09.189Z,2.42
2024-02-06T20:20:37.371Z,2.10
2024-02-06T20:23:05.751Z,2.80
2024-02-06T20:25:34.194Z,2.78
2024-02-06T20:28:02.548Z,2.92
2024-02-06T20:30:30.783Z,2.63
2024-02-06T20:32:59.011Z,3.15
2024-02-06T20:35:28.628Z,2.45
2024-02-06T20:37:56.976Z,2.30
2024-02-06T20:40:25.212Z,2.50
2024-02-06T20:42:53.878Z,3.60
2024-02-06T20:45:22.421Z,2.90
2024-02-06T20:47:50.672Z,2.00
2024-02-06T20:50:18.966Z,2.35
2024-02-06T20:52:48.679Z,2.90
2024-02-06T20:55:17.165Z,2.30
2024-02-06T20:57:45.319Z,2.85
2024-02-06T21:00:14.531Z,2.00
2024-02-06T21:02:42.882Z,1.73
2024-02-06T21:05:11.073Z,2.30
2024-02-06T21:07:39.536Z,2.42
2024-02-06T21:10:10.546Z,2.83
2024-02-06T21:12:38.754Z,2.63
2024-02-06T21:15:09.844Z,2.13
2024-02-06T21:17:38.324Z,2.33
2024-02-06T21:20:11.648Z,2.28
2024-02-06T21:22:41.449Z,2.25
2024-02-06T21:25:11.265Z,2.60
2024-02-06T21:27:39.392Z,1.90
2024-02-06T21:30:10.679Z,2.35
2024-02-06T21:32:39.061Z,2.38
2024-02-06T21:35:07.635Z,2.30
2024-02-06T21:37:35.940Z,2.50
2024-02-06T21:40:05.399Z,1.90
2024-02-06T21:42:35.142Z,2.60
2024-02-06T21:45:05.754Z,2.47
2024-02-06T21:47:35.351Z,2.38
2024-02-06T21:50:04.249Z,2.53
2024-02-06T21:52:32.459Z,3.60
2024-02-06T21:55:00.915Z,3.03
2024-02-06T21:57:29.714Z,2.33
2024-02-06T21:59:59.423Z,2.45
2024-02-06T22:02:27.619Z,2.63
2024-02-06T22:04:56.163Z,2.72
2024-02-06T22:07:24.348Z,2.72
2024-02-06T22:09:53.503Z,2.50
2024-02-06T22:12:21.657Z,2.47
2024-02-06T22:14:50.384Z,2.50
2024-02-06T22:17:20.681Z,2.22
2024-02-06T22:19:50.095Z,3.05
2024-02-06T22:22:18.881Z,2.80
2024-02-06T22:24:47.600Z,2.50
2024-02-06T22:27:17.315Z,1.98
2024-02-06T22:29:45.474Z,2.30
2024-02-06T22:32:13.650Z,2.75
2024-02-06T22:34:43.267Z,2.50
2024-02-06T22:37:11.494Z,2.00
2024-02-06T22:39:42.109Z,2.58
2024-02-06T22:42:10.244Z,2.75
2024-02-06T22:44:38.516Z,2.22
2024-02-06T22:47:07.101Z,2.38
2024-02-06T22:49:35.419Z,2.53
2024-02-06T22:52:06.403Z,2.60
2024-02-06T22:54:34.588Z,2.23
2024-02-06T22:57:02.951Z,2.55
2024-02-06T22:59:33.381Z,2.45
2024-02-06T23:02:01.720Z,2.47
2024-02-06T23:04:29.920Z,2.47
2024-02-06T23:06:58.375Z,2.78
2024-02-06T23:09:28.348Z,2.40
2024-02-06T23:11:57.187Z,2.70
2024-02-06T23:14:25.435Z,2.25
2024-02-06T23:16:53.583Z,2.50
2024-02-06T23:19:22.141Z,2.63
2024-02-06T23:21:50.349Z,2.92
2024-02-06T23:24:18.827Z,2.80
2024-02-06T23:26:48.995Z,2.17
2024-02-06T23:29:17.127Z,3.47
2024-02-06T23:31:45.488Z,2.50
2024-02-06T23:34:13.795Z,2.88
2024-02-06T23:36:41.944Z,2.97
2024-02-06T23:39:15.894Z,2.45
2024-02-06T23:41:45.190Z,2.50
2024-02-06T23:44:14.802Z,2.38
2024-02-06T23:46:43.305Z,2.42
2024-02-06T23:49:11.961Z,2.60
2024-02-06T23:51:40.258Z,2.60
2024-02-06T23:54:09.474Z,2.28
2024-02-06T23:56:37.712Z,2.45
2024-02-06T23:59:05.962Z,2.50
